Time;durP1;ratioP1;P1;durP2;ratioP2;P2;SDS_P1;SDS_P2;PMS_P1;PMS_P2;Temp;Humidity;BMP_temperature;BMP_pressure;BME280_temperature;BME280_humidity;BME280_pressure;Samples;Min_cycle;Max_cycle;Signal;HPM_P1;HPM_P2
2022/04/20 00:01:55;;;;;;;16.55;9.85;;;4.20;99.90;;;;;;5020045;28;20191;-72
2022/04/20 00:04:21;;;;;;;15.23;9.67;;;4.20;99.90;;;;;;5020785;28;20099;-72
2022/04/20 00:06:49;;;;;;;13.70;9.83;;;4.10;99.90;;;;;;5016541;28;20081;-72
2022/04/20 00:09:15;;;;;;;12.75;9.57;;;4.10;99.90;;;;;;5032567;28;20502;-72
2022/04/20 00:11:41;;;;;;;13.23;9.67;;;4.10;99.90;;;;;;5012316;28;20057;-72
2022/04/20 00:14:07;;;;;;;13.55;8.27;;;4.10;99.90;;;;;;5020852;28;20056;-72
2022/04/20 00:16:35;;;;;;;12.63;8.83;;;4.10;99.90;;;;;;5015031;28;20061;-72
2022/04/20 00:19:01;;;;;;;13.32;9.00;;;4.10;99.90;;;;;;5025285;28;20017;-72
2022/04/20 00:21:27;;;;;;;12.35;8.38;;;4.10;99.90;;;;;;5019128;28;20398;-72
2022/04/20 00:23:54;;;;;;;12.67;8.43;;;4.10;99.90;;;;;;5015737;28;20124;-72
2022/04/20 00:26:20;;;;;;;14.35;9.27;;;4.20;99.90;;;;;;5018129;28;20458;-73
2022/04/20 00:28:52;;;;;;;14.63;9.07;;;4.20;99.90;;;;;;5019928;28;20025;-72
2022/04/20 00:31:20;;;;;;;12.68;8.38;;;4.20;99.90;;;;;;5021037;28;20659;-72
2022/04/20 00:33:45;;;;;;;12.52;8.57;;;4.20;99.90;;;;;;5013281;28;20120;-72
2022/04/20 00:36:12;;;;;;;11.67;8.27;;;4.20;99.90;;;;;;5018614;28;20142;-73
2022/04/20 00:38:38;;;;;;;12.82;8.73;;;4.20;99.90;;;;;;5018596;28;20037;-72
2022/04/20 00:41:10;;;;;;;13.13;8.80;;;4.20;99.90;;;;;;5017213;28;20040;-73
2022/04/20 00:43:37;;;;;;;11.85;8.32;;;4.20;99.90;;;;;;5017090;28;20590;-73
2022/04/20 00:46:05;;;;;;;12.13;8.40;;;4.20;99.90;;;;;;5019593;28;20016;-73
2022/04/20 00:48:35;;;;;;;13.57;8.10;;;4.20;99.90;;;;;;5020676;28;20148;-72
2022/04/20 00:51:01;;;;;;;14.15;8.80;;;4.10;99.90;;;;;;5035112;28;20022;-72
2022/04/20 00:53:27;;;;;;;11.83;8.13;;;4.10;99.90;;;;;;5020947;28;20087;-72
2022/04/20 00:55:58;;;;;;;11.53;8.13;;;4.10;99.90;;;;;;5014380;28;20033;-72
2022/04/20 00:58:24;;;;;;;12.70;8.75;;;4.10;99.90;;;;;;5020275;28;20095;-72
2022/04/20 01:00:50;;;;;;;13.00;8.47;;;4.00;99.90;;;;;;5014245;28;20029;-72
2022/04/20 01:03:15;;;;;;;14.03;9.00;;;4.00;99.90;;;;;;5032816;28;20631;-72
2022/04/20 01:05:41;;;;;;;13.23;8.57;;;4.00;99.90;;;;;;5022190;28;20033;-72
2022/04/20 01:08:07;;;;;;;14.30;9.43;;;4.00;99.90;;;;;;5017919;28;20017;-72
2022/04/20 01:10:33;;;;;;;13.43;8.90;;;4.00;99.90;;;;;;5020298;28;20031;-72
2022/04/20 01:12:59;;;;;;;12.57;8.83;;;4.00;99.90;;;;;;5021913;28;20009;-72
2022/04/20 01:15:25;;;;;;;13.85;8.80;;;4.00;99.90;;;;;;5035332;28;20033;-72
2022/04/20 01:17:51;;;;;;;13.60;8.73;;;3.90;99.90;;;;;;5016872;28;20030;-72
2022/04/20 01:20:18;;;;;;;13.50;8.80;;;3.90;99.90;;;;;;5021094;28;20045;-72
2022/04/20 01:22:45;;;;;;;13.05;8.48;;;3.90;99.90;;;;;;5017835;28;20025;-74
2022/04/20 01:25:13;;;;;;;15.60;9.27;;;3.90;99.90;;;;;;5016295;28;20041;-72
2022/04/20 01:27:40;;;;;;;14.32;8.65;;;3.90;99.90;;;;;;5016800;28;20435;-72
2022/04/20 01:30:08;;;;;;;12.57;8.35;;;3.90;99.90;;;;;;5024694;28;20025;-72
2022/04/20 01:32:34;;;;;;;11.48;8.93;;;3.90;99.90;;;;;;5011921;28;20021;-72
2022/04/20 01:35:00;;;;;;;12.00;8.53;;;3.90;99.90;;;;;;5016710;28;20025;-72
2022/04/20 01:37:26;;;;;;;13.40;9.00;;;3.90;99.90;;;;;;5020055;28;20541;-72
2022/04/20 01:39:53;;;;;;;12.43;8.63;;;3.90;99.90;;;;;;5013583;28;20061;-72
2022/04/20 01:42:18;;;;;;;14.68;9.10;;;3.90;99.90;;;;;;5022958;28;20025;-72
2022/04/20 01:44:45;;;;;;;13.90;8.63;;;3.90;99.90;;;;;;5022990;28;20461;-72
2022/04/20 01:47:12;;;;;;;12.95;8.23;;;3.90;99.90;;;;;;5019130;28;20524;-72
2022/04/20 01:49:39;;;;;;;14.38;9.10;;;3.90;99.90;;;;;;5022242;28;20033;-72
2022/04/20 01:52:07;;;;;;;13.90;9.30;;;3.90;99.90;;;;;;5023572;28;20025;-72
2022/04/20 01:54:35;;;;;;;12.85;8.18;;;3.90;99.90;;;;;;5013862;28;20033;-72
2022/04/20 01:57:00;;;;;;;13.35;9.60;;;3.90;99.90;;;;;;5021856;28;20030;-72
2022/04/20 01:59:26;;;;;;;12.53;8.57;;;3.90;99.90;;;;;;5025899;28;20032;-72
2022/04/20 02:04:37;;;;;;;12.95;8.75;;;3.90;99.90;;;;;;5025302;28;20060;-72
2022/04/20 02:07:03;;;;;;;15.00;9.50;;;3.90;99.90;;;;;;5023850;28;20080;-73
2022/04/20 02:09:30;;;;;;;15.47;8.83;;;3.80;99.90;;;;;;5021911;28;20656;-72
2022/04/20 02:11:55;;;;;;;15.85;9.38;;;3.80;99.90;;;;;;5018668;28;20029;-72
2022/04/20 02:14:21;;;;;;;15.40;9.70;;;3.80;99.90;;;;;;5025991;28;20029;-72
2022/04/20 02:16:46;;;;;;;15.27;9.70;;;3.80;99.90;;;;;;5041062;28;20021;-72
2022/04/20 02:19:13;;;;;;;16.40;10.67;;;3.70;99.90;;;;;;5019787;28;20032;-72
2022/04/20 02:21:40;;;;;;;15.18;10.07;;;3.70;99.90;;;;;;5018720;28;20710;-72
2022/04/20 02:24:05;;;;;;;15.15;10.40;;;3.70;99.90;;;;;;5020140;28;20037;-72
2022/04/20 02:26:31;;;;;;;16.30;10.27;;;3.70;99.90;;;;;;5022210;28;20637;-72
2022/04/20 02:28:57;;;;;;;14.33;9.67;;;3.70;99.90;;;;;;5022513;28;20025;-72
2022/04/20 02:31:22;;;;;;;17.17;11.20;;;3.70;99.90;;;;;;5017904;28;20596;-72
2022/04/20 02:33:48;;;;;;;16.10;10.70;;;3.80;99.90;;;;;;5016974;28;20687;-72
2022/04/20 02:36:15;;;;;;;16.60;10.63;;;3.70;99.90;;;;;;5019273;28;20037;-72
2022/04/20 02:38:41;;;;;;;16.48;11.25;;;3.70;99.90;;;;;;5023705;28;20751;-72
2022/04/20 02:41:08;;;;;;;15.57;10.50;;;3.70;99.90;;;;;;5033762;28;20033;-72
2022/04/20 02:43:35;;;;;;;16.80;11.00;;;3.70;99.90;;;;;;5015476;28;20284;-72
2022/04/20 02:46:00;;;;;;;17.27;11.10;;;3.70;99.90;;;;;;5029911;28;20017;-72
2022/04/20 02:48:26;;;;;;;17.83;10.97;;;3.70;99.90;;;;;;5022230;28;20025;-72
2022/04/20 02:50:53;;;;;;;17.93;11.13;;;3.70;99.90;;;;;;5016316;28;20219;-72
2022/04/20 02:53:18;;;;;;;16.65;10.57;;;3.70;99.90;;;;;;5020005;28;20139;-72
2022/04/20 02:55:44;;;;;;;16.17;10.93;;;3.70;99.90;;;;;;5018800;28;20537;-72
2022/04/20 02:58:11;;;;;;;17.20;11.20;;;3.70;99.90;;;;;;5038639;28;20071;-72
2022/04/20 03:00:36;;;;;;;16.65;10.43;;;3.70;99.90;;;;;;5019951;28;20021;-72
2022/04/20 03:03:02;;;;;;;16.27;10.10;;;3.70;99.90;;;;;;5021556;28;20805;-72
2022/04/20 03:05:28;;;;;;;16.80;11.23;;;3.70;99.90;;;;;;5019463;28;20171;-72
2022/04/20 03:07:56;;;;;;;16.53;10.80;;;3.60;99.90;;;;;;5029976;28;20029;-71
2022/04/20 03:10:23;;;;;;;17.33;10.60;;;3.60;99.90;;;;;;5037588;28;20036;-72
2022/04/20 03:12:51;;;;;;;;;;;3.60;99.90;;;;;;5019628;28;20056;-72
2022/04/20 03:15:17;;;;;;;16.80;11.02;;;3.60;99.90;;;;;;5019474;28;19905;-72
2022/04/20 03:17:43;;;;;;;17.77;10.90;;;3.60;99.90;;;;;;5016381;28;20043;-73
2022/04/20 03:20:10;;;;;;;18.40;11.45;;;3.50;99.90;;;;;;5033068;28;20740;-72
2022/04/20 03:22:35;;;;;;;16.38;10.63;;;3.60;99.90;;;;;;5017513;28;20014;-72
2022/04/20 03:25:01;;;;;;;16.40;10.53;;;3.50;99.90;;;;;;5021489;28;20087;-72
2022/04/20 03:27:28;;;;;;;15.65;10.50;;;3.60;99.90;;;;;;5016276;28;20033;-72
2022/04/20 03:29:56;;;;;;;18.70;11.05;;;3.60;99.90;;;;;;5019151;28;20039;-72
2022/04/20 03:32:22;;;;;;;18.42;10.40;;;3.60;99.90;;;;;;5020469;28;20024;-72
2022/04/20 03:34:48;;;;;;;16.97;10.23;;;3.60;99.90;;;;;;5018671;28;20033;-72
2022/04/20 03:37:14;;;;;;;16.75;10.85;;;3.60;99.90;;;;;;5016693;28;20263;-72
2022/04/20 03:39:41;;;;;;;16.40;10.50;;;3.60;99.90;;;;;;5024830;28;20105;-72
2022/04/20 03:42:08;;;;;;;15.55;10.20;;;3.60;99.90;;;;;;5032402;28;20048;-72
2022/04/20 03:44:34;;;;;;;15.82;10.35;;;3.50;99.90;;;;;;5015376;28;20021;-72
2022/04/20 03:46:59;;;;;;;16.00;10.13;;;3.60;99.90;;;;;;5024332;28;20017;-72
2022/04/20 03:49:25;;;;;;;14.73;10.13;;;3.50;99.90;;;;;;5017642;28;20948;-72
2022/04/20 03:51:51;;;;;;;16.83;10.27;;;3.60;99.90;;;;;;5020514;28;20104;-72
2022/04/20 03:54:17;;;;;;;15.87;10.03;;;3.60;99.90;;;;;;5018171;28;20033;-72
2022/04/20 03:59:28;;;;;;;17.30;11.45;;;3.50;99.90;;;;;;5018513;28;20820;-72
2022/04/20 04:01:55;;;;;;;15.82;10.50;;;3.50;99.90;;;;;;5021037;28;20033;-72
2022/04/20 04:04:21;;;;;;;14.93;9.68;;;3.60;99.90;;;;;;5016423;28;20084;-72
2022/04/20 04:06:47;;;;;;;;;;;3.60;99.90;;;;;;5016347;28;20033;-73
2022/04/20 04:09:13;;;;;;;16.30;10.43;;;3.70;99.90;;;;;;5013421;28;19916;-72
2022/04/20 04:11:39;;;;;;;17.47;11.10;;;3.70;99.90;;;;;;5019572;28;20087;-72
2022/04/20 04:14:06;;;;;;;15.37;10.60;;;3.80;99.90;;;;;;5018518;28;20116;-72
2022/04/20 04:16:36;;;;;;;15.60;10.43;;;3.80;99.90;;;;;;5021020;28;20036;-72
2022/04/20 04:19:03;;;;;;;16.67;10.65;;;3.80;99.90;;;;;;5029156;28;20025;-72
2022/04/20 04:21:29;;;;;;;;;;;3.80;99.90;;;;;;5016812;28;20466;-72
2022/04/20 04:23:54;;;;;;;16.83;9.88;;;3.90;99.90;;;;;;5019374;28;19928;-72
2022/04/20 04:26:22;;;;;;;15.47;9.93;;;3.90;99.90;;;;;;5016275;28;20032;-72
2022/04/20 04:28:49;;;;;;;14.73;9.98;;;4.00;99.90;;;;;;5020852;28;20037;-72
2022/04/20 04:31:15;;;;;;;16.42;10.75;;;4.00;99.90;;;;;;5016105;28;20513;-73
2022/04/20 04:33:41;;;;;;;15.30;10.03;;;4.10;99.90;;;;;;5018139;28;20091;-72
2022/04/20 04:36:07;;;;;;;16.30;10.70;;;4.10;99.90;;;;;;5017058;28;20090;-72
2022/04/20 04:38:33;;;;;;;14.07;9.55;;;4.50;99.90;;;;;;5026286;28;20378;-72
2022/04/20 04:40:59;;;;;;;12.93;9.35;;;5.40;99.90;;;;;;5022620;28;20033;-72
2022/04/20 04:43:25;;;;;;;11.40;8.00;;;6.70;99.90;;;;;;5020252;28;20906;-72
2022/04/20 04:48:42;;;;;;;10.25;7.47;;;8.80;99.90;;;;;;5020129;28;20064;-72
2022/04/20 04:51:10;;;;;;;11.82;7.72;;;9.80;99.90;;;;;;5010566;28;20017;-72
2022/04/20 04:53:39;;;;;;;11.60;6.88;;;10.70;99.90;;;;;;5017016;28;20029;-73
2022/04/20 04:56:05;;;;;;;8.95;6.68;;;11.40;98.40;;;;;;5016834;28;20535;-73
2022/04/20 04:58:32;;;;;;;;;;;12.00;96.60;;;;;;5034009;28;20152;-73
2022/04/20 05:00:58;;;;;;;8.95;6.80;;;12.60;95.20;;;;;;5018704;28;19913;-73
2022/04/20 05:03:24;;;;;;;9.90;6.72;;;13.10;93.40;;;;;;5017852;28;20029;-72
2022/04/20 05:05:50;;;;;;;9.40;7.07;;;13.60;92.40;;;;;;5018628;28;20477;-73
2022/04/20 05:08:16;;;;;;;10.13;7.60;;;13.90;91.10;;;;;;5018330;28;20033;-73
2022/04/20 05:10:43;;;;;;;9.97;7.07;;;13.80;90.20;;;;;;5021468;28;20076;-73
2022/04/20 05:13:08;;;;;;;9.23;7.13;;;12.90;90.70;;;;;;5018396;28;20518;-73
2022/04/20 05:15:35;;;;;;;9.50;7.53;;;11.90;92.40;;;;;;5020105;28;20112;-72
2022/04/20 05:18:01;;;;;;;10.15;7.40;;;10.90;94.60;;;;;;5036898;28;20590;-72
2022/04/20 05:20:27;;;;;;;9.90;7.65;;;9.90;96.70;;;;;;5019901;28;20369;-72
2022/04/20 05:22:53;;;;;;;9.98;7.40;;;9.40;99.00;;;;;;5016209;28;20612;-70
2022/04/20 05:25:19;;;;;;;9.80;7.13;;;9.20;99.90;;;;;;5017693;28;20041;-69
2022/04/20 05:27:45;;;;;;;9.10;7.40;;;8.90;99.90;;;;;;5025367;28;20442;-73
2022/04/20 05:30:13;;;;;;;11.37;8.43;;;8.80;99.90;;;;;;5020016;28;20104;-73
2022/04/20 05:32:39;;;;;;;11.18;8.30;;;8.60;99.90;;;;;;5043830;28;20309;-73
2022/04/20 05:35:05;;;;;;;10.23;8.33;;;8.50;99.90;;;;;;5024239;28;20037;-73
2022/04/20 05:43:04;;;;;;;9.75;7.03;;;8.50;99.90;;;;;;5025678;28;20051;-73
2022/04/20 05:45:32;;;;;;;10.40;6.97;;;9.30;99.90;;;;;;5020601;28;20226;-73
2022/04/20 05:47:58;;;;;;;11.32;7.30;;;10.90;99.40;;;;;;5029386;28;20030;-72
2022/04/20 05:50:24;;;;;;;;;;;12.50;95.90;;;;;;5019147;28;20856;-73
2022/04/20 05:52:50;;;;;;;8.73;7.05;;;14.10;93.00;;;;;;5026390;28;20408;-73
2022/04/20 05:55:16;;;;;;;8.60;6.50;;;15.60;89.90;;;;;;5021128;28;20052;-73
2022/04/20 05:57:42;;;;;;;7.78;6.65;;;16.90;82.40;;;;;;5022238;28;20047;-73
2022/04/20 06:00:08;;;;;;;9.60;7.45;;;17.80;75.70;;;;;;5028220;28;20030;-74
2022/04/20 06:02:36;;;;;;;8.48;7.38;;;18.60;70.60;;;;;;5023834;28;20030;-73
2022/04/20 06:05:04;;;;;;;8.05;7.15;;;19.20;67.80;;;;;;5034610;28;20032;-74
2022/04/20 06:07:30;;;;;;;7.20;6.43;;;19.70;64.60;;;;;;5019391;28;20060;-74
2022/04/20 06:09:55;;;;;;;7.95;7.00;;;19.90;62.60;;;;;;5020990;28;20068;-74
2022/04/20 06:12:21;;;;;;;7.80;6.30;;;20.10;60.80;;;;;;5022370;28;20094;-74
2022/04/20 06:14:50;;;;;;;7.07;6.38;;;20.10;60.20;;;;;;5022345;28;20025;-75
2022/04/20 06:17:17;;;;;;;7.60;6.60;;;20.30;58.70;;;;;;5018413;28;20112;-74
2022/04/20 06:19:42;;;;;;;8.02;7.22;;;20.40;58.30;;;;;;5019325;28;20014;-74
2022/04/20 06:22:09;;;;;;;7.70;6.90;;;20.60;57.60;;;;;;5020588;28;20111;-74
2022/04/20 06:24:35;;;;;;;7.88;6.78;;;20.70;56.80;;;;;;5016498;28;20044;-74
2022/04/20 06:33:11;;;;;;;9.57;6.85;;;21.10;55.80;;;;;;4927199;29;20123;-75
2022/04/20 06:38:39;;;;;;;7.65;6.90;;;21.80;53.40;;;;;;4927794;29;19958;-73
2022/04/20 06:44:08;;;;;;;7.50;6.75;;;22.50;51.80;;;;;;4927271;29;20368;-73
2022/04/20 06:46:36;;;;;;;;;;;22.50;50.10;;;;;;4913705;29;20024;-73
2022/04/20 06:49:03;;;;;;;7.95;7.15;;;22.50;50.50;;;;;;4909844;29;19999;-73
2022/04/20 06:58:31;;;;;;;8.27;6.93;;;22.40;50.50;;;;;;4910882;29;20102;-73
2022/04/20 06:59:53;;;;;;;7.53;6.72;;;22.30;50.70;;;;;;4915028;29;20054;-73
2022/04/20 07:02:26;;;;;;;7.68;6.97;;;23.00;50.50;;;;;;4910451;29;20110;-73
2022/04/20 07:04:54;;;;;;;8.02;7.22;;;23.70;47.90;;;;;;4919492;29;20038;-73
2022/04/20 07:07:20;;;;;;;7.97;7.22;;;24.30;47.70;;;;;;4887673;29;20070;-74
2022/04/20 07:09:47;;;;;;;7.13;6.45;;;24.80;45.70;;;;;;4908393;29;20057;-73
2022/04/20 07:12:14;;;;;;;8.05;7.25;;;25.00;45.50;;;;;;4894325;29;20024;-73
2022/04/20 07:14:43;;;;;;;7.35;6.63;;;25.30;44.20;;;;;;4900289;29;20385;-74
2022/04/20 07:17:08;;;;;;;7.43;6.60;;;25.00;44.10;;;;;;4893381;29;20096;-73
2022/04/20 07:19:35;;;;;;;7.35;6.65;;;25.00;44.60;;;;;;4898458;29;20044;-73
2022/04/20 07:22:02;;;;;;;7.95;7.15;;;25.10;44.30;;;;;;4890311;29;20486;-74
2022/04/20 07:24:28;;;;;;;7.28;6.57;;;25.10;44.50;;;;;;4897738;29;20039;-74
2022/04/20 07:26:54;;;;;;;10.65;6.80;;;24.60;44.60;;;;;;4899963;29;20024;-73
2022/04/20 07:29:21;;;;;;;7.95;7.15;;;24.80;44.70;;;;;;4892299;29;20039;-73
2022/04/20 07:31:49;;;;;;;7.72;7.00;;;25.10;44.50;;;;;;4915308;29;20667;-74
2022/04/20 07:34:15;;;;;;;7.88;7.15;;;25.60;43.20;;;;;;4897197;29;20036;-74
2022/04/20 07:36:42;;;;;;;7.90;7.10;;;25.80;42.40;;;;;;4895350;29;20028;-74
2022/04/20 07:39:09;;;;;;;7.90;7.00;;;25.80;42.00;;;;;;4896282;29;20036;-74
2022/04/20 07:41:38;;;;;;;9.60;7.30;;;25.80;41.90;;;;;;4890767;29;20029;-74
2022/04/20 07:44:04;;;;;;;7.38;6.68;;;25.80;41.70;;;;;;4899558;29;20028;-74
2022/04/20 07:46:30;;;;;;;8.18;7.10;;;25.70;41.70;;;;;;4894180;29;20831;-74
2022/04/20 07:48:56;;;;;;;8.10;7.40;;;25.70;42.30;;;;;;4896768;29;20081;-74
2022/04/20 07:51:24;;;;;;;9.23;7.57;;;25.50;42.00;;;;;;4892051;29;20052;-74
2022/04/20 07:53:51;;;;;;;8.48;7.68;;;25.10;43.00;;;;;;4900126;29;20422;-74
2022/04/20 07:56:17;;;;;;;8.05;7.25;;;25.20;42.10;;;;;;4896009;29;20036;-74
2022/04/20 07:58:42;;;;;;;7.90;7.13;;;25.50;41.90;;;;;;4890115;29;20028;-74
2022/04/20 08:01:10;;;;;;;8.00;7.20;;;25.70;41.70;;;;;;4895970;29;20033;-74
2022/04/20 08:03:39;;;;;;;8.02;7.22;;;25.90;41.50;;;;;;4897213;29;20501;-74
2022/04/20 08:06:05;;;;;;;8.13;7.38;;;25.70;41.60;;;;;;4895196;29;20033;-74
2022/04/20 08:08:31;;;;;;;8.90;7.90;;;25.40;41.90;;;;;;4897617;29;20101;-74
2022/04/20 08:10:57;;;;;;;7.30;6.68;;;25.00;42.00;;;;;;4896463;29;20028;-74
2022/04/20 08:16:07;;;;;;;7.97;7.18;;;25.10;41.60;;;;;;4887176;29;20039;-74
2022/04/20 08:18:37;;;;;;;7.90;7.10;;;25.50;41.20;;;;;;4891183;29;20028;-74
2022/04/20 08:21:09;;;;;;;7.78;7.00;;;26.30;40.20;;;;;;4893647;29;20028;-73
2022/04/20 08:23:37;;;;;;;8.95;7.43;;;26.70;39.40;;;;;;4901458;29;20032;-74
2022/04/20 08:26:05;;;;;;;11.10;8.20;;;26.70;39.50;;;;;;4893995;29;20087;-75
2022/04/20 08:28:31;;;;;;;8.13;7.32;;;26.10;39.60;;;;;;4899087;29;20582;-76
2022/04/20 08:30:56;;;;;;;8.38;7.57;;;25.90;40.30;;;;;;4887544;29;20029;-76
2022/04/20 08:33:23;;;;;;;8.18;7.45;;;25.20;40.40;;;;;;4886758;29;20440;-74
2022/04/20 08:35:50;;;;;;;7.75;7.05;;;24.40;42.00;;;;;;4895418;29;20680;-74
2022/04/20 08:38:15;;;;;;;7.25;6.60;;;24.30;41.00;;;;;;4898233;29;20036;-73
2022/04/20 08:40:43;;;;;;;7.93;7.15;;;23.30;41.20;;;;;;4894553;29;20043;-74
2022/04/20 08:43:11;;;;;;;8.50;7.60;;;22.90;42.80;;;;;;4896571;29;20512;-74
2022/04/20 08:45:39;;;;;;;8.82;7.93;;;23.40;42.20;;;;;;4895669;29;20039;-74
2022/04/20 08:48:06;;;;;;;8.90;7.53;;;23.60;41.40;;;;;;4886533;29;20055;-74
2022/04/20 08:50:33;;;;;;;7.68;6.95;;;23.30;41.10;;;;;;4894960;29;20024;-74
2022/04/20 08:53:00;;;;;;;8.07;7.13;;;22.90;41.70;;;;;;4897198;29;20024;-73
2022/04/20 08:55:27;;;;;;;8.55;7.70;;;22.70;41.40;;;;;;4885989;29;20063;-73
2022/04/20 08:57:54;;;;;;;8.25;7.45;;;22.60;40.30;;;;;;4896597;29;20060;-73
2022/04/20 09:00:25;;;;;;;8.30;7.50;;;21.80;42.60;;;;;;4895560;29;20038;-74
2022/04/20 09:02:55;;;;;;;8.32;6.93;;;22.30;43.20;;;;;;4904450;29;20051;-73
2022/04/20 09:05:21;;;;;;;8.63;7.72;;;22.90;41.40;;;;;;4902286;29;20092;-73
2022/04/20 09:07:48;;;;;;;8.57;7.68;;;22.40;40.40;;;;;;4896803;29;20027;-75
2022/04/20 09:10:18;;;;;;;8.18;7.38;;;21.10;42.30;;;;;;4895719;29;20419;-75
2022/04/20 09:13:08;;;;;;;8.77;7.85;;;20.20;43.50;;;;;;4896997;29;20052;-75
2022/04/20 09:15:38;;;;;;;8.48;7.32;;;19.70;45.00;;;;;;4911932;29;20702;-75
2022/04/20 09:18:04;;;;;;;7.78;6.97;;;20.60;44.30;;;;;;4894498;29;20020;-74
2022/04/20 09:20:34;;;;;;;11.25;8.32;;;21.70;43.40;;;;;;5300883;23;20043;-74
2022/04/20 09:26:24;;;;;;;7.60;6.90;;;20.20;43.00;;;;;;4929553;29;20070;-75
2022/04/20 09:32:11;;;;;;;7.93;7.03;;;18.90;44.30;;;;;;4929297;29;20161;-75
2022/04/20 09:38:07;;;;;;;8.32;7.50;;;21.40;42.00;;;;;;4925854;29;20373;-75
2022/04/20 09:44:10;;;;;;;8.40;7.55;;;21.30;41.00;;;;;;4929139;29;20077;-76
2022/04/20 09:50:02;;;;;;;8.07;7.28;;;19.20;44.70;;;;;;4908514;29;20524;-75
2022/04/20 09:52:47;;;;;;;7.68;6.97;;;19.90;44.60;;;;;;4925274;29;20020;-76
2022/04/20 09:55:15;;;;;;;7.95;7.05;;;19.60;43.90;;;;;;4912853;29;20083;-75
2022/04/20 09:57:41;;;;;;;7.80;7.00;;;18.90;45.50;;;;;;4907470;29;20031;-75
2022/04/20 10:00:12;;;;;;;;;;;18.30;45.50;;;;;;4933572;29;20825;-75
2022/04/20 10:02:58;;;;;;;9.00;7.00;;;17.70;46.00;;;;;;4902127;29;20001;-76
2022/04/20 10:05:25;;;;;;;6.57;5.97;;;18.50;46.40;;;;;;4909090;29;20532;-74
2022/04/20 10:07:58;;;;;;;7.28;6.55;;;19.40;44.80;;;;;;4899272;29;20095;-74
2022/04/20 10:10:30;;;;;;;7.57;6.78;;;20.80;43.10;;;;;;4911642;29;21403;-73
2022/04/20 10:13:04;;;;;;;7.43;6.65;;;21.60;41.50;;;;;;4910856;29;20031;-73
2022/04/20 10:18:20;;;;;;;7.57;6.78;;;20.10;43.20;;;;;;4916206;29;20043;-75
2022/04/20 10:20:50;;;;;;;8.82;7.90;;;19.40;43.50;;;;;;4903544;29;20028;-75
2022/04/20 10:23:21;;;;;;;7.97;7.18;;;18.80;43.90;;;;;;4911461;29;20028;-75
2022/04/20 10:25:51;;;;;;;7.35;6.65;;;17.80;45.50;;;;;;4906234;29;20111;-76
2022/04/20 10:28:52;;;;;;;6.78;6.15;;;17.90;44.40;;;;;;4918737;29;20102;-75
2022/04/20 10:31:29;;;;;;;7.75;6.72;;;19.20;43.90;;;;;;4906154;29;20020;-76
2022/04/20 10:33:56;;;;;;;;;;;20.00;43.30;;;;;;4918819;29;20043;-76
2022/04/20 10:36:31;;;;;;;6.80;6.10;;;19.80;43.00;;;;;;4914865;29;19918;-76
2022/04/20 10:39:20;;;;;;;7.55;6.70;;;19.30;43.60;;;;;;4912956;29;20032;-75
2022/04/20 10:42:17;;;;;;;7.32;6.50;;;18.70;44.40;;;;;;4909217;29;20015;-75
2022/04/20 10:45:04;;;;;;;7.70;6.88;;;18.20;44.90;;;;;;4907434;29;20224;-75
2022/04/20 10:47:36;;;;;;;7.00;6.30;;;17.20;46.10;;;;;;4914264;29;20798;-75
2022/04/20 10:50:19;;;;;;;8.73;6.15;;;16.50;47.90;;;;;;4911218;29;20454;-75
2022/04/20 10:55:47;;;;;;;7.57;6.78;;;16.30;50.00;;;;;;4912566;29;20481;-75
2022/04/20 10:58:22;;;;;;;7.65;6.78;;;16.20;49.40;;;;;;4901606;29;20050;-75
2022/04/20 11:01:10;;;;;;;8.00;7.20;;;16.20;49.60;;;;;;4909583;29;20937;-75
2022/04/20 11:03:57;;;;;;;9.40;7.10;;;16.00;49.50;;;;;;4924043;29;20135;-75
2022/04/20 11:06:48;;;;;;;7.75;6.80;;;15.80;50.60;;;;;;4905995;29;20183;-74
2022/04/20 11:09:49;;;;;;;9.20;7.70;;;15.70;51.40;;;;;;4905214;29;20483;-74
2022/04/20 11:21:09;;;;;;;6.93;5.95;;;15.30;50.50;;;;;;4912825;29;20055;-75
2022/04/20 11:23:48;;;;;;;7.30;6.35;;;15.30;51.10;;;;;;4907381;29;20696;-75
2022/04/20 11:26:20;;;;;;;7.55;6.72;;;15.60;50.00;;;;;;4910649;29;20026;-75
2022/04/20 11:29:16;;;;;;;7.10;6.40;;;16.10;49.20;;;;;;4905170;29;20031;-75
2022/04/20 11:32:10;;;;;;;9.20;7.57;;;16.60;48.30;;;;;;4903072;29;20035;-74
2022/04/20 11:34:39;;;;;;;12.25;7.35;;;16.70;48.50;;;;;;4903718;29;20063;-75
2022/04/20 11:37:07;;;;;;;8.13;6.95;;;16.70;48.60;;;;;;4911822;29;20024;-75
2022/04/20 11:39:36;;;;;;;8.15;6.68;;;16.30;49.20;;;;;;4904844;29;20078;-75
2022/04/20 11:42:06;;;;;;;6.82;6.13;;;16.10;50.20;;;;;;4916707;29;20049;-75
2022/04/20 11:44:40;;;;;;;7.93;6.85;;;15.90;50.10;;;;;;4908593;29;20107;-75
2022/04/20 11:47:08;;;;;;;9.18;7.15;;;15.90;50.40;;;;;;4916141;29;20083;-75
2022/04/20 11:49:41;;;;;;;9.63;6.70;;;16.30;50.00;;;;;;4905363;29;20031;-75
2022/04/20 11:52:14;;;;;;;7.45;6.32;;;16.60;49.40;;;;;;4912984;29;20070;-74
2022/04/20 11:54:46;;;;;;;9.55;6.65;;;16.80;47.40;;;;;;4898532;29;20032;-75
2022/04/20 11:57:18;;;;;;;7.95;7.15;;;16.90;48.30;;;;;;4912364;29;20063;-75
2022/04/20 11:59:47;;;;;;;10.05;6.32;;;16.70;47.80;;;;;;4904393;29;20075;-75
2022/04/20 12:02:15;;;;;;;7.38;6.45;;;16.50;48.00;;;;;;4909040;29;20020;-74
2022/04/20 12:04:44;;;;;;;6.97;6.28;;;16.40;47.80;;;;;;4898377;29;20457;-75
2022/04/20 12:07:12;;;;;;;7.70;6.65;;;16.20;48.40;;;;;;4913627;29;20641;-75
2022/04/20 12:09:42;;;;;;;7.32;6.53;;;16.10;48.70;;;;;;4926266;29;20540;-74
2022/04/20 12:12:10;;;;;;;8.43;6.70;;;16.20;48.50;;;;;;4921604;29;20028;-76
2022/04/20 12:14:40;;;;;;;7.75;6.05;;;16.40;48.00;;;;;;4911225;29;20599;-72
2022/04/20 12:17:23;;;;;;;7.05;5.60;;;16.70;50.60;;;;;;4910403;29;20027;-72
2022/04/20 12:19:50;;;;;;;7.75;6.05;;;17.00;51.80;;;;;;4896509;29;20072;-70
2022/04/20 12:22:21;;;;;;;8.70;7.22;;;17.30;49.70;;;;;;4903895;29;20123;-70
2022/04/20 12:25:02;;;;;;;8.93;6.55;;;17.40;47.50;;;;;;4916433;29;20024;-70
2022/04/20 12:27:27;;;;;;;7.95;6.72;;;17.40;46.80;;;;;;4910997;29;20107;-69
2022/04/20 12:29:55;;;;;;;7.28;5.68;;;17.50;47.70;;;;;;4900085;29;20104;-72
2022/04/20 12:32:24;;;;;;;6.55;5.85;;;17.50;47.80;;;;;;4911091;29;20119;-72
2022/04/20 12:34:54;;;;;;;6.57;5.63;;;17.60;46.30;;;;;;4907522;29;20052;-72
2022/04/20 12:37:30;;;;;;;7.18;6.28;;;17.60;45.70;;;;;;4906055;29;20035;-72
2022/04/20 12:39:57;;;;;;;8.18;6.00;;;17.60;45.80;;;;;;4907336;29;20036;-69
2022/04/20 12:42:26;;;;;;;7.47;5.78;;;17.50;45.50;;;;;;4914004;29;20028;-71
2022/04/20 12:44:53;;;;;;;7.07;6.38;;;17.20;46.90;;;;;;4907651;29;20083;-73
2022/04/20 12:47:21;;;;;;;7.70;6.13;;;17.00;46.00;;;;;;4916364;29;20083;-73
2022/04/20 12:50:10;;;;;;;6.18;5.57;;;16.70;46.20;;;;;;4910944;29;20253;-73
2022/04/20 12:52:37;;;;;;;7.20;5.75;;;16.90;46.80;;;;;;4901353;29;20024;-73
2022/04/20 12:55:08;;;;;;;7.97;5.95;;;17.10;47.20;;;;;;4905422;29;20127;-73
2022/04/20 13:03:16;;;;;;;7.45;5.60;;;16.50;46.10;;;;;;4909949;29;20092;-73
2022/04/20 13:05:43;;;;;;;7.50;5.63;;;16.50;47.90;;;;;;4907704;29;20019;-73
2022/04/20 13:08:13;;;;;;;6.32;5.22;;;16.60;46.10;;;;;;4914239;29;20036;-73
2022/04/20 13:10:42;;;;;;;6.82;6.05;;;16.60;45.70;;;;;;4903984;29;20482;-73
2022/04/20 13:13:12;;;;;;;6.00;5.40;;;16.50;45.40;;;;;;4908763;29;20035;-72
2022/04/20 13:15:38;;;;;;;6.20;5.60;;;16.50;46.50;;;;;;4911561;29;20506;-72
2022/04/20 13:18:05;;;;;;;6.00;5.40;;;16.50;46.20;;;;;;4905310;29;20031;-73
2022/04/20 13:20:31;;;;;;;5.43;4.82;;;16.40;45.20;;;;;;4910719;29;20493;-73
2022/04/20 13:22:58;;;;;;;6.53;5.40;;;16.40;45.90;;;;;;4898928;29;20039;-73
2022/04/20 13:28:08;;;;;;;6.47;5.43;;;16.10;44.50;;;;;;4903681;29;20100;-73
2022/04/20 13:30:38;;;;;;;7.13;4.93;;;15.80;43.70;;;;;;4923774;29;20111;-73
2022/04/20 13:33:07;;;;;;;5.45;4.80;;;15.60;45.50;;;;;;4914518;29;20161;-73
2022/04/20 13:35:34;;;;;;;5.38;4.68;;;15.60;45.30;;;;;;4915160;29;20120;-73
2022/04/20 13:38:00;;;;;;;6.25;5.63;;;15.60;45.80;;;;;;4913497;29;20047;-73
2022/04/20 13:40:26;;;;;;;5.50;4.82;;;15.50;46.00;;;;;;4903291;29;20024;-73
2022/04/20 13:42:56;;;;;;;7.18;5.00;;;15.50;46.50;;;;;;4916596;28;20032;-73
2022/04/20 13:45:22;;;;;;;5.60;5.00;;;15.50;45.90;;;;;;4921703;29;20024;-72
2022/04/20 13:47:48;;;;;;;6.13;5.05;;;15.50;46.30;;;;;;4910179;29;20027;-72
2022/04/20 13:50:14;;;;;;;5.80;5.20;;;15.40;45.30;;;;;;4914628;29;20099;-73
2022/04/20 13:52:40;;;;;;;5.28;4.78;;;15.30;45.00;;;;;;4914001;29;20023;-72
2022/04/20 13:55:08;;;;;;;5.53;4.65;;;15.30;45.60;;;;;;4904746;29;20036;-73
2022/04/20 13:57:35;;;;;;;7.05;4.50;;;15.30;45.20;;;;;;4929625;29;20031;-73
2022/04/20 14:00:14;;;;;;;6.28;4.40;;;15.20;46.00;;;;;;4906638;29;20036;-73
2022/04/20 14:02:41;;;;;;;5.80;5.00;;;15.30;45.60;;;;;;4906639;29;20084;-72
2022/04/20 14:05:10;;;;;;;5.22;4.63;;;15.30;45.50;;;;;;4912114;29;20039;-72
2022/04/20 14:07:37;;;;;;;5.53;4.30;;;15.30;46.00;;;;;;4928745;29;20027;-72
2022/04/20 14:10:05;;;;;;;5.90;4.47;;;15.30;45.60;;;;;;4908819;29;20056;-72